Time;durP1;ratioP1;P1;durP2;ratioP2;P2;SDS_P1;SDS_P2;PMS_P1;PMS_P2;Temp;Humidity;BMP_temperature;BMP_pressure;BME280_temperature;BME280_humidity;BME280_pressure;Samples;Min_cycle;Max_cycle;Signal;HPM_P1;HPM_P2
2023/08/19 00:00:19;;;;;;;;;;;24.30;90.00;;;;;;5030182;28;20385;-74
2023/08/19 00:02:45;;;;;;;;;;;24.30;90.20;;;;;;5031280;28;19940;-74
2023/08/19 00:05:10;;;;;;;;;;;24.30;90.00;;;;;;5026360;28;20265;-74
2023/08/19 00:07:36;;;;;;;;;;;24.30;89.80;;;;;;5045863;28;19913;-74
2023/08/19 00:10:02;;;;;;;;;;;24.30;90.10;;;;;;5029485;28;19925;-74
2023/08/19 00:12:27;;;;;;;;;;;24.30;89.90;;;;;;5048104;28;19916;-74
2023/08/19 00:14:55;;;;;;;;;;;24.30;90.00;;;;;;5030924;28;19909;-74
2023/08/19 00:17:21;;;;;;;;;;;24.30;90.00;;;;;;5030393;28;19917;-73
2023/08/19 00:19:46;;;;;;;;;;;24.30;90.10;;;;;;5029205;28;19928;-74
2023/08/19 00:22:12;;;;;;;;;;;24.30;90.10;;;;;;5031171;28;20341;-74
2023/08/19 00:24:37;;;;;;;;;;;24.30;90.10;;;;;;5014186;28;19960;-74
2023/08/19 00:27:03;;;;;;;;;;;24.30;90.00;;;;;;5030796;28;19913;-74
2023/08/19 00:29:28;;;;;;;;;;;24.30;90.20;;;;;;5016252;28;19924;-74
2023/08/19 00:31:54;;;;;;;;;;;24.30;90.30;;;;;;5029681;28;19917;-74
2023/08/19 00:34:19;;;;;;;;;;;24.30;90.10;;;;;;5013303;28;19921;-72
2023/08/19 00:36:45;;;;;;;;;;;24.30;90.30;;;;;;5034134;28;19914;-73
2023/08/19 00:39:10;;;;;;;;;;;24.20;90.30;;;;;;5034385;28;19958;-74
2023/08/19 00:41:36;;;;;;;;;;;24.20;90.30;;;;;;5032677;28;19913;-74
2023/08/19 00:44:01;;;;;;;;;;;24.20;90.20;;;;;;5034473;28;20258;-74
2023/08/19 00:46:27;;;;;;;;;;;24.20;90.30;;;;;;5035584;28;20234;-74
2023/08/19 00:48:52;;;;;;;;;;;24.20;90.30;;;;;;5030797;28;19982;-73
2023/08/19 00:51:18;;;;;;;;;;;24.20;90.30;;;;;;5038139;28;20658;-74
2023/08/19 00:53:43;;;;;;;;;;;24.20;90.30;;;;;;5057636;28;19979;-74
2023/08/19 00:56:09;;;;;;;;;;;24.20;90.30;;;;;;5057204;28;20673;-74
2023/08/19 00:58:35;;;;;;;;;;;24.20;90.40;;;;;;5043074;28;19987;-74
2023/08/19 01:01:00;;;;;;;;;;;24.20;90.30;;;;;;5061773;28;19966;-74
2023/08/19 01:03:26;;;;;;;;;;;24.20;90.50;;;;;;5053292;28;19966;-74
2023/08/19 01:06:00;;;;;;;;;;;24.20;90.40;;;;;;5066215;28;19963;-74
2023/08/19 01:08:29;;;;;;;;;;;24.20;90.10;;;;;;5074178;28;19976;-74
2023/08/19 01:11:12;;;;;;;;;;;24.20;90.30;;;;;;5059898;28;20007;-74
2023/08/19 01:13:54;;;;;;;;;;;24.20;90.20;;;;;;5059155;28;19909;-74
2023/08/19 01:16:23;;;;;;;;;;;24.20;90.20;;;;;;5059233;28;19939;-74
2023/08/19 01:18:48;;;;;;;;;;;24.20;90.20;;;;;;5055772;28;19987;-74
2023/08/19 01:21:13;;;;;;;;;;;24.20;89.90;;;;;;5079203;28;19920;-74
2023/08/19 01:23:42;;;;;;;;;;;24.20;90.10;;;;;;5060799;28;19912;-74
2023/08/19 01:26:08;;;;;;;;;;;24.20;90.20;;;;;;5057111;28;19970;-74
2023/08/19 01:28:33;;;;;;;;;;;24.10;90.30;;;;;;5057059;28;19916;-74
2023/08/19 01:30:59;;;;;;;;;;;24.10;90.50;;;;;;5068657;28;19920;-74
2023/08/19 01:33:24;;;;;;;;;;;24.10;90.10;;;;;;5070721;28;20360;-74
2023/08/19 01:35:57;;;;;;;;;;;24.10;90.20;;;;;;5056046;28;19913;-73
2023/08/19 01:38:41;;;;;;;;;;;24.10;90.40;;;;;;5055598;28;19913;-74
2023/08/19 01:41:07;;;;;;;;;;;24.10;90.50;;;;;;5054611;28;19924;-74
2023/08/19 01:43:32;;;;;;;;;;;24.10;90.60;;;;;;5039197;28;19912;-74
2023/08/19 01:45:57;;;;;;;;;;;24.00;90.50;;;;;;5036606;28;19931;-74
2023/08/19 01:48:23;;;;;;;;;;;24.10;90.10;;;;;;5053886;28;19923;-74
2023/08/19 01:50:48;;;;;;;;;;;24.10;90.50;;;;;;5056719;28;20080;-74
2023/08/19 01:53:14;;;;;;;;;;;24.10;90.60;;;;;;5053932;28;19917;-74
2023/08/19 01:55:39;;;;;;;;;;;24.10;90.40;;;;;;5056117;28;19992;-73
2023/08/19 01:58:05;;;;;;;;;;;24.10;90.40;;;;;;5055022;28;19916;-74
2023/08/19 02:00:30;;;;;;;;;;;24.10;90.40;;;;;;5051762;28;19928;-74
2023/08/19 02:02:56;;;;;;;;;;;24.00;90.30;;;;;;5054693;28;20272;-74
2023/08/19 02:05:21;;;;;;;;;;;24.00;90.70;;;;;;5052651;28;19970;-74
2023/08/19 02:07:47;;;;;;;;;;;24.00;90.70;;;;;;5030074;28;19909;-74
2023/08/19 02:10:12;;;;;;;;;;;24.00;90.60;;;;;;5054636;28;19943;-74
2023/08/19 02:12:38;;;;;;;;;;;24.00;90.40;;;;;;5036463;28;20422;-74
2023/08/19 02:15:03;;;;;;;;;;;24.00;90.70;;;;;;5070440;28;19958;-73
2023/08/19 02:17:29;;;;;;;;;;;24.00;90.60;;;;;;5039476;28;19917;-74
2023/08/19 02:19:54;;;;;;;;;;;24.00;90.60;;;;;;5055029;28;19979;-74
2023/08/19 02:22:21;;;;;;;;;;;24.00;90.70;;;;;;5050754;28;20287;-74
2023/08/19 02:24:49;;;;;;;;;;;24.00;90.50;;;;;;5055431;28;19928;-74
2023/08/19 02:27:15;;;;;;;;;;;24.00;90.20;;;;;;5055272;28;19986;-74
2023/08/19 02:29:40;;;;;;;;;;;24.00;90.50;;;;;;5050966;28;20475;-74
2023/08/19 02:32:06;;;;;;;;;;;24.00;90.70;;;;;;5054434;28;19916;-74
2023/08/19 02:34:32;;;;;;;;;;;24.00;90.60;;;;;;5053609;28;19957;-74
2023/08/19 02:36:57;;;;;;;;;;;23.90;90.60;;;;;;5055148;28;20002;-74
2023/08/19 02:39:23;;;;;;;;;;;24.00;90.50;;;;;;5045346;28;19913;-73
2023/08/19 02:41:48;;;;;;;;;;;23.90;90.70;;;;;;5040053;28;19919;-74
2023/08/19 02:44:13;;;;;;;;;;;23.90;90.80;;;;;;5051935;28;19931;-74
2023/08/19 02:46:39;;;;;;;;;;;24.00;90.80;;;;;;5054478;28;19924;-73
2023/08/19 02:49:04;;;;;;;;;;;23.90;90.70;;;;;;5053972;28;20018;-73
2023/08/19 02:51:30;;;;;;;;;;;23.90;90.90;;;;;;5051142;28;19974;-74
2023/08/19 02:53:55;;;;;;;;;;;23.90;90.80;;;;;;5071275;28;19916;-74
2023/08/19 02:56:21;;;;;;;;;;;23.90;90.80;;;;;;5047176;28;19912;-73
2023/08/19 02:58:46;;;;;;;;;;;23.90;90.90;;;;;;5039471;28;19912;-74
2023/08/19 03:01:13;;;;;;;;;;;23.80;90.80;;;;;;5053575;28;19940;-73
2023/08/19 03:03:38;;;;;;;;;;;23.90;90.60;;;;;;5071812;28;19913;-74
2023/08/19 03:06:04;;;;;;;;;;;23.90;90.60;;;;;;5055852;28;19962;-74
2023/08/19 03:08:29;;;;;;;;;;;23.90;90.70;;;;;;5073094;28;19920;-73
2023/08/19 03:10:55;;;;;;;;;;;23.90;90.60;;;;;;5046792;28;19919;-74
2023/08/19 03:13:20;;;;;;;;;;;23.90;90.50;;;;;;5051333;28;19912;-73
2023/08/19 03:15:46;;;;;;;;;;;23.90;90.50;;;;;;5053519;28;20057;-74
2023/08/19 03:18:14;;;;;;;;;;;23.90;90.70;;;;;;5053731;28;19984;-74
2023/08/19 03:20:40;;;;;;;;;;;23.90;90.70;;;;;;5036712;28;20443;-74
2023/08/19 03:23:05;;;;;;;;;;;23.90;90.60;;;;;;5070957;28;19999;-74
2023/08/19 03:25:31;;;;;;;;;;;23.90;90.50;;;;;;5054169;28;20301;-74
2023/08/19 03:27:56;;;;;;;;;;;23.90;90.60;;;;;;5051224;28;19908;-74
2023/08/19 03:30:22;;;;;;;;;;;23.80;90.60;;;;;;5057727;28;20795;-74
2023/08/19 03:32:47;;;;;;;;;;;23.80;90.60;;;;;;5054038;28;19913;-74
2023/08/19 03:35:15;;;;;;;;;;;23.90;90.70;;;;;;5071441;28;19913;-74
2023/08/19 03:37:41;;;;;;;;;;;23.80;90.50;;;;;;5053523;28;19912;-74
2023/08/19 03:40:06;;;;;;;;;;;23.90;90.70;;;;;;5056244;28;19924;-74
2023/08/19 03:42:32;;;;;;;;;;;23.80;90.70;;;;;;5052349;28;20429;-74
2023/08/19 03:44:57;;;;;;;;;;;23.80;91.00;;;;;;5052872;28;20376;-74
2023/08/19 03:47:23;;;;;;;;;;;23.80;90.60;;;;;;5045269;28;20357;-74
2023/08/19 03:49:48;;;;;;;;;;;23.80;90.50;;;;;;5052927;28;19916;-74
2023/08/19 03:52:14;;;;;;;;;;;23.80;90.70;;;;;;5042650;28;19917;-74
2023/08/19 03:54:39;;;;;;;;;;;23.80;90.60;;;;;;5049790;28;19932;-74
2023/08/19 03:57:05;;;;;;;;;;;23.80;90.60;;;;;;5069193;28;19920;-73
2023/08/19 03:59:30;;;;;;;;;;;23.80;90.70;;;;;;5052464;28;20279;-73
2023/08/19 04:01:55;;;;;;;;;;;23.80;90.70;;;;;;5052896;28;19920;-74
2023/08/19 04:04:21;;;;;;;;;;;23.80;90.70;;;;;;5055002;28;19916;-74
2023/08/19 04:06:46;;;;;;;;;;;23.80;90.70;;;;;;5058614;28;20364;-74
2023/08/19 04:09:12;;;;;;;;;;;23.80;90.80;;;;;;5074071;28;19967;-74
2023/08/19 04:11:37;;;;;;;;;;;23.80;90.80;;;;;;5056824;28;19985;-74
2023/08/19 04:14:03;;;;;;;;;;;23.80;90.70;;;;;;5075433;28;20380;-74
2023/08/19 04:16:28;;;;;;;;;;;23.80;90.70;;;;;;5058337;28;19985;-74
2023/08/19 04:18:54;;;;;;;;;;;23.80;90.70;;;;;;5057874;28;20003;-74
2023/08/19 04:21:19;;;;;;;;;;;23.80;90.70;;;;;;5049931;28;19975;-74
2023/08/19 04:23:45;;;;;;;;;;;23.70;90.70;;;;;;5057204;28;20349;-74
2023/08/19 04:26:10;;;;;;;;;;;23.80;90.80;;;;;;5058246;28;20029;-74
2023/08/19 04:28:36;;;;;;;;;;;23.80;90.80;;;;;;5041354;28;19935;-73
2023/08/19 04:31:06;;;;;;;;;;;23.80;90.70;;;;;;5056914;28;19912;-73
2023/08/19 04:33:32;;;;;;;;;;;23.70;90.60;;;;;;5056963;28;19923;-74
2023/08/19 04:35:57;;;;;;;;;;;23.80;90.60;;;;;;5057520;28;19917;-74
2023/08/19 04:38:23;;;;;;;;;;;23.80;90.60;;;;;;5054209;28;19917;-74
2023/08/19 04:40:48;;;;;;;;;;;23.80;90.60;;;;;;5052144;28;19912;-74
2023/08/19 04:43:14;;;;;;;;;;;23.80;90.70;;;;;;5072603;28;20438;-74
2023/08/19 04:45:39;;;;;;;;;;;23.70;90.60;;;;;;5054377;28;19978;-74
2023/08/19 04:48:05;;;;;;;;;;;23.80;90.60;;;;;;5056075;28;19958;-74
2023/08/19 04:50:31;;;;;;;;;;;23.80;90.60;;;;;;5057505;28;19959;-74
2023/08/19 04:52:56;;;;;;;;;;;23.80;90.60;;;;;;5053614;28;20007;-73
2023/08/19 04:55:22;;;;;;;;;;;23.70;90.50;;;;;;5038811;28;19916;-74
2023/08/19 04:57:47;;;;;;;;;;;23.80;90.40;;;;;;5057812;28;19919;-74
2023/08/19 05:00:13;;;;;;;;;;;23.80;90.50;;;;;;5055742;28;19913;-73
2023/08/19 05:02:38;;;;;;;;;;;23.80;90.60;;;;;;5037875;28;19972;-74
2023/08/19 05:05:04;;;;;;;;;;;23.80;90.60;;;;;;5056982;28;19916;-74
2023/08/19 05:07:30;;;;;;;;;;;23.80;90.60;;;;;;5055747;28;20285;-74
2023/08/19 05:09:55;;;;;;;;;;;23.80;90.50;;;;;;5067900;28;19927;-74
2023/08/19 05:12:22;;;;;;;;;;;23.70;90.50;;;;;;5055079;28;19920;-74
2023/08/19 05:14:48;;;;;;;;;;;23.70;90.60;;;;;;5055899;28;19913;-74
2023/08/19 05:17:14;;;;;;;;;;;23.70;90.60;;;;;;5057518;28;20364;-74
2023/08/19 05:19:39;;;;;;;;;;;23.70;90.60;;;;;;5055217;28;20003;-74
2023/08/19 05:22:04;;;;;;;;;;;23.70;90.60;;;;;;5055657;28;19909;-74
2023/08/19 05:24:30;;;;;;;;;;;23.70;90.70;;;;;;5055612;28;20318;-74
2023/08/19 05:26:55;;;;;;;;;;;23.70;90.70;;;;;;5055110;28;20003;-74
2023/08/19 05:29:21;;;;;;;;;;;23.70;90.80;;;;;;5067044;28;19920;-74
2023/08/19 05:31:46;;;;;;;;;;;23.70;90.80;;;;;;5056976;28;20431;-74
2023/08/19 05:34:12;;;;;;;;;;;23.70;90.70;;;;;;5054442;28;20379;-74
2023/08/19 05:36:37;;;;;;;;;;;23.70;90.70;;;;;;5047790;28;20296;-74
2023/08/19 05:39:03;;;;;;;;;;;23.70;90.70;;;;;;5051861;28;19920;-74
2023/08/19 05:41:28;;;;;;;;;;;23.70;90.70;;;;;;5055473;28;19944;-74
2023/08/19 05:43:54;;;;;;;;;;;23.70;90.60;;;;;;5055183;28;20023;-74
2023/08/19 05:46:19;;;;;;;;;;;23.70;90.70;;;;;;5055702;28;20368;-74
2023/08/19 05:48:45;;;;;;;;;;;23.80;90.60;;;;;;5055523;28;20292;-74
2023/08/19 05:51:11;;;;;;;;;;;23.70;90.80;;;;;;5053299;28;19922;-74
2023/08/19 05:53:36;;;;;;;;;;;23.70;90.80;;;;;;5052148;28;19920;-74
2023/08/19 05:56:02;;;;;;;;;;;23.70;90.90;;;;;;5054465;28;20361;-74
2023/08/19 05:58:27;;;;;;;;;;;23.60;91.10;;;;;;5034511;28;20330;-74
2023/08/19 06:00:59;;;;;;;;;;;23.50;91.20;;;;;;5052373;28;19916;-74
2023/08/19 06:03:24;;;;;;;;;;;23.50;91.30;;;;;;5029857;28;19913;-74
2023/08/19 06:05:50;;;;;;;;;;;23.50;91.50;;;;;;5052447;28;20433;-74
2023/08/19 06:08:15;;;;;;;;;;;23.50;91.50;;;;;;5052591;28;20277;-74
2023/08/19 06:10:44;;;;;;;;;;;23.50;91.60;;;;;;5054784;28;19912;-74
2023/08/19 06:13:10;;;;;;;;;;;23.40;91.80;;;;;;5053452;28;20342;-74
2023/08/19 06:15:35;;;;;;;;;;;23.30;92.00;;;;;;5050914;28;19927;-74
2023/08/19 06:18:01;;;;;;;;;;;23.40;91.90;;;;;;5037013;28;19944;-74
2023/08/19 06:20:26;;;;;;;;;;;23.40;91.80;;;;;;5049256;28;19966;-74
2023/08/19 06:22:51;;;;;;;;;;;23.50;91.90;;;;;;5053446;28;19913;-74
2023/08/19 06:25:17;;;;;;;;;;;23.50;91.70;;;;;;5070154;28;19959;-74
2023/08/19 06:27:42;;;;;;;;;;;23.50;91.70;;;;;;5052662;28;20372;-74
2023/08/19 06:30:08;;;;;;;;;;;23.50;91.60;;;;;;5034939;28;19938;-71
2023/08/19 06:32:34;;;;;;;;;;;23.50;91.70;;;;;;5053769;28;19928;-71
2023/08/19 06:34:59;;;;;;;;;;;23.50;91.60;;;;;;5049035;28;19917;-72
2023/08/19 06:37:26;;;;;;;;;;;23.50;91.70;;;;;;5066287;28;20016;-74
2023/08/19 06:39:51;;;;;;;;;;;23.50;91.60;;;;;;5052013;28;20374;-74
2023/08/19 06:42:18;;;;;;;;;;;23.50;91.60;;;;;;5067399;28;19927;-74
2023/08/19 06:44:43;;;;;;;;;;;23.60;91.80;;;;;;5036392;28;19917;-73
2023/08/19 06:47:09;;;;;;;;;;;23.60;91.70;;;;;;5054289;28;19981;-74
2023/08/19 06:49:35;;;;;;;;;;;23.60;91.70;;;;;;5048250;28;20070;-74
2023/08/19 06:52:01;;;;;;;;;;;23.60;91.70;;;;;;4988570;28;1760204;-74
2023/08/19 06:54:26;;;;;;;;;;;23.60;91.70;;;;;;5052096;28;19920;-73
2023/08/19 06:56:58;;;;;;;;;;;23.70;91.70;;;;;;5054603;28;20296;-73
2023/08/19 06:59:24;;;;;;;;;;;23.60;91.70;;;;;;5071528;28;20341;-74
2023/08/19 07:01:50;;;;;;;;;;;23.70;91.70;;;;;;5047982;28;19938;-73
2023/08/19 07:04:15;;;;;;;;;;;23.70;91.60;;;;;;5069339;28;19943;-74
2023/08/19 07:06:41;;;;;;;;;;;23.70;91.70;;;;;;5068492;28;20009;-74
2023/08/19 07:09:07;;;;;;;;;;;23.70;91.60;;;;;;5053327;28;19923;-74
2023/08/19 07:11:32;;;;;;;;;;;23.70;91.80;;;;;;5054633;28;19915;-74
2023/08/19 07:13:58;;;;;;;;;;;23.70;91.80;;;;;;5053740;28;19961;-74
2023/08/19 07:16:23;;;;;;;;;;;23.70;92.10;;;;;;5051556;28;19912;-74
2023/08/19 07:18:51;;;;;;;;;;;23.70;91.80;;;;;;5050650;28;19920;-74
2023/08/19 07:21:16;;;;;;;;;;;23.80;92.00;;;;;;5051226;28;20318;-74
2023/08/19 07:23:44;;;;;;;;;;;23.80;92.00;;;;;;5052887;28;19920;-74
2023/08/19 07:26:09;;;;;;;;;;;23.70;92.00;;;;;;5054295;28;19942;-74
2023/08/19 07:28:35;;;;;;;;;;;23.80;92.00;;;;;;5051495;28;20376;-74
2023/08/19 07:31:01;;;;;;;;;;;23.80;92.00;;;;;;5053495;28;19913;-74
2023/08/19 07:33:26;;;;;;;;;;;23.80;92.00;;;;;;5045886;28;19916;-74
2023/08/19 07:35:52;;;;;;;;;;;23.90;92.10;;;;;;5049294;28;19912;-74
2023/08/19 07:38:17;;;;;;;;;;;23.90;92.10;;;;;;5052274;28;20011;-74
2023/08/19 07:40:43;;;;;;;;;;;24.10;92.20;;;;;;5052554;28;19928;-74
2023/08/19 07:43:08;;;;;;;;;;;24.00;92.00;;;;;;5066094;28;19912;-74
2023/08/19 07:45:34;;;;;;;;;;;24.10;92.20;;;;;;5069246;28;19912;-74
2023/08/19 07:47:59;;;;;;;;;;;24.10;92.00;;;;;;5069276;28;19916;-74
2023/08/19 07:50:25;;;;;;;;;;;24.10;91.90;;;;;;5056667;28;19939;-74
2023/08/19 07:52:50;;;;;;;;;;;24.20;91.70;;;;;;5048686;28;19931;-74
2023/08/19 07:55:16;;;;;;;;;;;24.20;91.80;;;;;;5053424;28;20265;-74
2023/08/19 07:57:41;;;;;;;;;;;24.30;91.80;;;;;;5068266;28;20022;-74
2023/08/19 08:00:07;;;;;;;;;;;24.30;91.80;;;;;;5053990;28;19920;-74
2023/08/19 08:02:32;;;;;;;;;;;24.40;91.50;;;;;;5043255;28;19940;-74
2023/08/19 08:04:58;;;;;;;;;;;24.40;91.50;;;;;;5051472;28;19966;-73
2023/08/19 08:07:24;;;;;;;;;;;24.40;91.40;;;;;;5052133;28;19916;-74
2023/08/19 08:09:49;;;;;;;;;;;24.40;91.30;;;;;;5044465;28;19920;-74
2023/08/19 08:12:15;;;;;;;;;;;24.50;91.40;;;;;;5048927;28;19912;-74
2023/08/19 08:14:40;;;;;;;;;;;24.50;91.30;;;;;;5052446;28;19963;-74
2023/08/19 08:17:06;;;;;;;;;;;24.50;91.40;;;;;;5069037;28;19917;-74
2023/08/19 08:19:31;;;;;;;;;;;24.50;91.50;;;;;;5047963;28;19913;-74
2023/08/19 08:21:57;;;;;;;;;;;24.60;91.10;;;;;;5052723;28;19909;-74
2023/08/19 08:24:22;;;;;;;;;;;24.60;90.60;;;;;;5046647;28;19954;-74
2023/08/19 08:26:48;;;;;;;;;;;24.60;90.60;;;;;;5052830;28;20303;-73
2023/08/19 08:29:13;;;;;;;;;;;24.70;90.70;;;;;;5050511;28;19959;-73
2023/08/19 08:31:39;;;;;;;;;;;24.80;90.60;;;;;;5050588;28;19916;-73
2023/08/19 08:34:04;;;;;;;;;;;24.80;90.20;;;;;;5046095;28;19913;-74
2023/08/19 08:36:30;;;;;;;;;;;24.90;90.30;;;;;;5050671;28;19962;-74
2023/08/19 08:38:55;;;;;;;;;;;24.90;90.30;;;;;;5033349;28;20337;-74
2023/08/19 08:41:20;;;;;;;;;;;24.80;90.40;;;;;;5052852;28;20340;-73
2023/08/19 08:43:46;;;;;;;;;;;24.80;90.30;;;;;;5047487;28;19920;-74
2023/08/19 08:46:12;;;;;;;;;;;24.80;90.50;;;;;;5048957;28;19920;-74
2023/08/19 08:48:38;;;;;;;;;;;24.90;90.10;;;;;;5049955;28;19917;-74
2023/08/19 08:51:04;;;;;;;;;;;25.20;89.70;;;;;;5075063;28;19919;-74
2023/08/19 08:53:29;;;;;;;;;;;25.10;89.40;;;;;;5054656;28;19917;-74
2023/08/19 08:55:55;;;;;;;;;;;25.10;88.90;;;;;;5055960;28;19995;-74
2023/08/19 08:58:21;;;;;;;;;;;25.10;89.30;;;;;;5034983;28;19943;-74
2023/08/19 09:00:47;;;;;;;;;;;25.00;89.60;;;;;;5050405;28;19916;-75
2023/08/19 09:03:12;;;;;;;;;;;25.10;90.00;;;;;;5050626;28;20390;-75
2023/08/19 09:05:38;;;;;;;;;;;25.10;89.90;;;;;;5052139;28;20010;-74
2023/08/19 09:08:04;;;;;;;;;;;25.10;89.90;;;;;;5052449;28;20315;-74
2023/08/19 09:10:29;;;;;;;;;;;25.10;89.40;;;;;;5073312;28;20018;-74
2023/08/19 09:12:58;;;;;;;;;;;25.10;90.20;;;;;;5073595;28;19919;-75
2023/08/19 09:15:25;;;;;;;;;;;25.10;89.50;;;;;;5054016;28;19913;-75
2023/08/19 09:17:51;;;;;;;;;;;25.10;89.90;;;;;;5064970;28;19962;-74
2023/08/19 09:20:17;;;;;;;;;;;25.10;89.70;;;;;;5024304;28;19948;-75
2023/08/19 09:22:42;;;;;;;;;;;25.20;89.60;;;;;;5056898;28;20319;-74
2023/08/19 09:25:12;;;;;;;;;;;25.20;89.40;;;;;;5056457;28;19913;-74
2023/08/19 09:27:38;;;;;;;;;;;25.30;89.20;;;;;;5054589;28;19913;-75
2023/08/19 09:30:04;;;;;;;;;;;25.30;89.50;;;;;;5057016;28;19997;-74
2023/08/19 09:32:30;;;;;;;;;;;25.30;89.70;;;;;;5057041;28;19909;-75
2023/08/19 09:35:14;;;;;;;;;;;25.20;90.00;;;;;;5039852;28;19916;-75
2023/08/19 09:37:40;;;;;;;;;;;25.40;89.90;;;;;;5056428;28;20337;-75
2023/08/19 09:40:17;;;;;;;;;;;25.50;89.20;;;;;;5056290;28;19916;-75
2023/08/19 09:42:46;;;;;;;;;;;25.60;88.70;;;;;;5074767;28;19946;-75
2023/08/19 09:45:15;;;;;;;;;;;25.60;88.70;;;;;;5039297;28;19912;-75
2023/08/19 09:47:45;;;;;;;;;;;25.60;88.50;;;;;;5056694;28;20407;-75
2023/08/19 09:50:10;;;;;;;;;;;25.70;88.60;;;;;;5074129;28;20017;-75
2023/08/19 09:52:37;;;;;;;;;;;25.70;88.00;;;;;;5055014;28;19949;-75
2023/08/19 09:55:03;;;;;;;;;;;25.70;88.30;;;;;;5070890;28;20384;-75
2023/08/19 09:57:32;;;;;;;;;;;25.60;88.50;;;;;;5049368;28;20235;-75
2023/08/19 09:59:58;;;;;;;;;;;25.60;89.30;;;;;;5035871;28;20273;-74
2023/08/19 10:02:23;;;;;;;;;;;25.60;89.20;;;;;;5056939;28;19908;-75
2023/08/19 10:04:48;;;;;;;;;;;25.60;88.90;;;;;;5054823;28;19916;-75
2023/08/19 10:07:14;;;;;;;;;;;25.70;89.10;;;;;;5050980;28;19912;-74
2023/08/19 10:09:40;;;;;;;;;;;25.60;89.20;;;;;;5072154;28;20148;-74
2023/08/19 10:12:06;;;;;;;;;;;25.80;89.00;;;;;;5050155;28;19935;-74
2023/08/19 10:14:31;;;;;;;;;;;25.80;88.90;;;;;;5049534;28;20304;-74
2023/08/19 10:16:59;;;;;;;;;;;26.00;88.20;;;;;;5055922;28;19908;-75
2023/08/19 10:19:24;;;;;;;;;;;26.00;88.00;;;;;;5050321;28;19948;-75
2023/08/19 10:21:50;;;;;;;;;;;26.10;87.80;;;;;;5052011;28;20144;-75
2023/08/19 10:24:16;;;;;;;;;;;26.10;88.00;;;;;;5044935;28;20017;-75
2023/08/19 10:26:45;;;;;;;;;;;26.20;87.80;;;;;;5049964;28;19919;-75
2023/08/19 10:29:10;;;;;;;;;;;26.30;87.70;;;;;;5056257;28;20380;-74
2023/08/19 10:31:36;;;;;;;;;;;26.30;87.30;;;;;;5053563;28;19924;-74
2023/08/19 10:34:11;;;;;;;;;;;26.50;87.30;;;;;;5054852;28;19938;-74
2023/08/19 10:36:36;;;;;;;;;;;26.40;87.20;;;;;;5054392;28;19962;-74
2023/08/19 10:39:03;;;;;;;;;;;26.40;87.60;;;;;;5047589;28;19912;-74
2023/08/19 10:41:29;;;;;;;;;;;26.50;87.60;;;;;;5049536;28;19921;-75
2023/08/19 10:43:58;;;;;;;;;;;26.50;87.60;;;;;;5065727;28;19920;-74
2023/08/19 10:46:27;;;;;;;;;;;26.60;87.10;;;;;;5067409;28;19959;-74
2023/08/19 10:48:52;;;;;;;;;;;26.60;87.00;;;;;;5054782;28;19917;-75
2023/08/19 10:51:18;;;;;;;;;;;26.60;87.00;;;;;;5055342;28;19916;-75
2023/08/19 10:53:50;;;;;;;;;;;26.70;86.30;;;;;;5051968;28;19916;-74
2023/08/19 10:56:17;;;;;;;;;;;26.80;86.10;;;;;;5046104;28;19924;-74
2023/08/19 10:58:43;;;;;;;;;;;26.70;87.00;;;;;;5060643;28;20368;-74
2023/08/19 11:01:08;;;;;;;;;;;26.60;87.50;;;;;;5071310;28;19909;-74
2023/08/19 11:03:34;;;;;;;;;;;26.70;87.10;;;;;;5054694;28;19966;-75
2023/08/19 11:05:59;;;;;;;;;;;26.70;86.90;;;;;;5055026;28;19917;-75
2023/08/19 11:08:24;;;;;;;;;;;26.90;86.50;;;;;;5050433;28;19913;-75
2023/08/19 11:10:50;;;;;;;;;;;26.90;86.00;;;;;;5037737;28;19912;-75
2023/08/19 11:13:15;;;;;;;;;;;26.80;86.60;;;;;;5054901;28;19938;-75
2023/08/19 11:15:41;;;;;;;;;;;26.90;86.20;;;;;;5044043;28;19917;-75
2023/08/19 11:18:06;;;;;;;;;;;26.90;86.90;;;;;;5049584;28;19912;-75
2023/08/19 11:20:32;;;;;;;;;;;26.80;86.70;;;;;;5054819;28;19915;-75
2023/08/19 11:22:57;;;;;;;;;;;26.80;87.10;;;;;;5051888;28;19920;-74
2023/08/19 11:25:31;;;;;;;;;;;26.90;87.00;;;;;;5054580;28;19909;-74
2023/08/19 11:27:56;;;;;;;;;;;26.80;86.90;;;;;;5047907;28;20381;-75
2023/08/19 11:30:22;;;;;;;;;;;27.00;87.00;;;;;;5058618;28;19989;-75
2023/08/19 11:32:47;;;;;;;;;;;26.80;87.00;;;;;;5054826;28;19935;-75
2023/08/19 11:35:12;;;;;;;;;;;26.80;87.30;;;;;;5053365;28;19912;-75
2023/08/19 11:37:41;;;;;;;;;;;26.90;87.20;;;;;;5049241;28;19913;-75
2023/08/19 11:40:08;;;;;;;;;;;26.80;87.20;;;;;;5053886;28;19970;-74
2023/08/19 11:42:33;;;;;;;;;;;26.80;87.50;;;;;;5054272;28;20006;-75
2023/08/19 11:44:58;;;;;;;;;;;26.80;87.80;;;;;;5037690;28;20007;-75
2023/08/19 11:47:25;;;;;;;;;;;26.90;87.20;;;;;;5052637;28;19912;-75
2023/08/19 11:49:50;;;;;;;;;;;27.00;86.80;;;;;;5037253;28;19919;-75
2023/08/19 11:52:19;;;;;;;;;;;26.90;87.10;;;;;;5050194;28;19924;-74
2023/08/19 11:55:04;;;;;;;;;;;27.00;86.50;;;;;;5068479;28;20392;-75
2023/08/19 11:57:36;;;;;;;;;;;27.10;86.10;;;;;;5062832;28;19912;-74
2023/08/19 12:00:04;;;;;;;;;;;27.20;85.60;;;;;;5051329;28;19924;-74
2023/08/19 12:02:30;;;;;;;;;;;27.10;85.50;;;;;;5036861;28;19971;-75
2023/08/19 12:04:55;;;;;;;;;;;26.90;86.10;;;;;;5047736;28;19935;-74
2023/08/19 12:07:30;;;;;;;;;;;26.90;86.00;;;;;;5058719;28;19920;-74
2023/08/19 12:09:58;;;;;;;;;;;27.00;86.00;;;;;;5036572;28;19923;-75
2023/08/19 12:12:24;;;;;;;;;;;26.90;85.60;;;;;;5053597;28;20415;-74
2023/08/19 12:14:49;;;;;;;;;;;26.90;86.50;;;;;;5051097;28;19912;-74
2023/08/19 12:17:17;;;;;;;;;;;26.90;87.00;;;;;;5039316;28;19913;-75
2023/08/19 12:19:43;;;;;;;;;;;26.90;86.70;;;;;;5053214;28;19958;-75
2023/08/19 12:22:09;;;;;;;;;;;26.90;86.90;;;;;;5052387;28;20325;-74
2023/08/19 12:24:35;;;;;;;;;;;26.80;87.30;;;;;;5053768;28;19917;-75
2023/08/19 12:27:00;;;;;;;;;;;26.80;87.50;;;;;;5036120;28;20090;-75
2023/08/19 12:29:26;;;;;;;;;;;26.90;86.70;;;;;;5056488;28;19925;-75
2023/08/19 12:31:52;;;;;;;;;;;27.00;86.50;;;;;;5054728;28;20344;-75
2023/08/19 12:34:17;;;;;;;;;;;27.10;86.20;;;;;;5039793;28;19923;-74
2023/08/19 12:36:42;;;;;;;;;;;27.10;86.10;;;;;;5054198;28;19935;-73
2023/08/19 12:39:08;;;;;;;;;;;27.10;86.10;;;;;;5039951;28;19912;-75
2023/08/19 12:41:33;;;;;;;;;;;27.10;86.60;;;;;;5058040;28;19975;-74
2023/08/19 12:43:59;;;;;;;;;;;27.00;86.80;;;;;;5054226;28;19916;-74
2023/08/19 12:46:29;;;;;;;;;;;27.10;85.50;;;;;;5058250;28;20352;-74
2023/08/19 12:48:55;;;;;;;;;;;27.20;85.50;;;;;;5072788;28;20015;-74
2023/08/19 12:51:20;;;;;;;;;;;27.20;84.30;;;;;;5057023;28;20036;-74
2023/08/19 12:53:46;;;;;;;;;;;27.20;83.40;;;;;;5067475;28;19920;-74
2023/08/19 12:56:11;;;;;;;;;;;27.20;83.70;;;;;;5049564;28;19912;-74
2023/08/19 12:58:37;;;;;;;;;;;27.20;83.80;;;;;;5048688;28;19920;-74
2023/08/19 13:01:04;;;;;;;;;;;27.20;82.60;;;;;;5058069;28;19986;-74
2023/08/19 13:03:30;;;;;;;;;;;27.20;82.60;;;;;;5070009;28;19924;-75
2023/08/19 13:05:55;;;;;;;;;;;27.20;82.30;;;;;;5050008;28;19912;-74
2023/08/19 13:08:21;;;;;;;;;;;27.30;81.90;;;;;;5073328;28;19921;-74
2023/08/19 13:10:46;;;;;;;;;;;27.30;81.70;;;;;;5057550;28;19920;-74
2023/08/19 13:13:11;;;;;;;;;;;27.30;82.00;;;;;;5051353;28;19912;-74
2023/08/19 13:15:37;;;;;;;;;;;27.20;82.10;;;;;;5035376;28;20368;-74
2023/08/19 13:18:03;;;;;;;;;;;27.20;82.20;;;;;;5055793;28;20062;-74
2023/08/19 13:20:28;;;;;;;;;;;27.10;82.40;;;;;;5052169;28;20287;-72
2023/08/19 13:22:54;;;;;;;;;;;27.20;82.30;;;;;;5073710;28;19916;-73
2023/08/19 13:25:20;;;;;;;;;;;27.20;82.10;;;;;;5053204;28;20380;-73
2023/08/19 13:27:45;;;;;;;;;;;27.20;82.10;;;;;;5037771;28;19935;-74
2023/08/19 13:30:11;;;;;;;;;;;27.20;82.00;;;;;;5054429;28;19921;-74
2023/08/19 13:32:37;;;;;;;;;;;27.30;81.60;;;;;;5044454;28;20284;-74
2023/08/19 13:35:04;;;;;;;;;;;27.20;82.30;;;;;;5055822;28;20380;-74
2023/08/19 13:37:30;;;;;;;;;;;27.20;82.20;;;;;;5074408;28;19959;-74
2023/08/19 13:39:56;;;;;;;;;;;27.20;82.50;;;;;;5055297;28;19913;-75
2023/08/19 13:42:22;;;;;;;;;;;27.10;82.30;;;;;;5049714;28;19920;-73
2023/08/19 13:44:47;;;;;;;;;;;27.10;82.30;;;;;;5066228;28;20266;-72
2023/08/19 13:47:13;;;;;;;;;;;27.10;82.50;;;;;;5073730;28;19919;-74
2023/08/19 13:49:38;;;;;;;;;;;27.10;82.70;;;;;;5056230;28;19924;-74
2023/08/19 13:52:04;;;;;;;;;;;27.00;83.00;;;;;;5064766;28;19927;-75
2023/08/19 13:54:29;;;;;;;;;;;27.10;83.00;;;;;;5056205;28;20415;-74
2023/08/19 13:56:56;;;;;;;;;;;27.10;82.90;;;;;;5054989;28;20019;-74
2023/08/19 13:59:21;;;;;;;;;;;27.00;83.30;;;;;;5053492;28;19924;-74
2023/08/19 14:01:47;;;;;;;;;;;27.00;83.50;;;;;;5037104;28;20353;-74
2023/08/19 14:04:13;;;;;;;;;;;27.00;83.40;;;;;;5053951;28;19920;-74
2023/08/19 14:06:38;;;;;;;;;;;27.00;83.40;;;;;;5044955;28;20543;-74
2023/08/19 14:09:04;;;;;;;;;;;27.00;84.40;;;;;;5033034;28;20292;-74